Time;durP1;ratioP1;P1;durP2;ratioP2;P2;SDS_P1;SDS_P2;PMS_P1;PMS_P2;Temp;Humidity;BMP_temperature;BMP_pressure;BME280_temperature;BME280_humidity;BME280_pressure;Samples;Min_cycle;Max_cycle;Signal;HPM_P1;HPM_P2
2023/11/12 00:01:03;;;;;;;0.30;0.30;;;;;;;7.21;81.18;98595.88;5056687;28;20055;-72
2023/11/12 00:03:32;;;;;;;0.30;0.30;;;;;;;7.21;80.62;98592.50;5056963;28;20486;-70
2023/11/12 00:06:00;;;;;;;0.40;0.40;;;;;;;7.20;81.10;98596.72;5057000;28;20041;-72
2023/11/12 00:08:31;;;;;;;0.88;0.82;;;;;;;7.09;81.16;98572.25;5056818;28;20041;-72
2023/11/12 00:11:00;;;;;;;0.30;0.30;;;;;;;7.23;80.59;98591.63;5057037;28;20033;-71
2023/11/12 00:13:29;;;;;;;1.07;0.87;;;;;;;7.24;80.36;98588.25;5056755;28;20134;-72
2023/11/12 00:15:58;;;;;;;0.87;0.80;;;;;;;7.22;80.11;98594.19;5057142;28;20290;-70
2023/11/12 00:18:26;;;;;;;0.30;0.30;;;;;;;7.21;79.94;98597.56;5056762;28;20099;-72
2023/11/12 00:21:20;;;;;;;3.13;0.70;;;;;;;7.19;80.02;98594.19;5056413;28;20033;-73
2023/11/12 00:23:52;;;;;;;0.40;0.40;;;;;;;7.21;80.17;98593.34;5056273;28;20053;-71
2023/11/12 00:26:21;;;;;;;0.95;0.77;;;;;;;7.23;79.89;98600.94;5056371;28;20073;-73
2023/11/12 00:28:54;;;;;;;0.63;0.63;;;;;;;7.21;80.05;98603.47;5056270;28;20052;-72
2023/11/12 00:31:24;;;;;;;0.60;0.60;;;;;;;7.19;80.17;98602.66;5055103;28;20044;-73
2023/11/12 00:33:52;;;;;;;0.43;0.43;;;;;;;7.17;80.30;98598.44;5054982;28;20045;-72
2023/11/12 00:36:21;;;;;;;1.90;0.90;;;;;;;7.20;80.39;98603.47;5054852;28;20045;-72
2023/11/12 00:38:51;;;;;;;0.70;0.70;;;;;;;7.19;79.59;98609.41;5056126;28;20281;-71
2023/11/12 00:41:21;;;;;;;0.50;0.50;;;;;;;7.11;80.10;98598.44;5054805;28;20518;-69
2023/11/12 00:43:50;;;;;;;0.45;0.45;;;;;;;7.18;80.09;98615.31;5055985;28;20048;-70
2023/11/12 00:46:20;;;;;;;0.47;0.47;;;;;;;7.17;79.65;98613.66;5054726;28;20056;-70
2023/11/12 00:48:49;;;;;;;1.38;1.27;;;;;;;7.18;79.44;98622.94;5055776;28;20037;-70
2023/11/12 00:51:18;;;;;;;0.32;0.32;;;;;;;7.15;79.95;98622.97;5054637;28;20056;-71
2023/11/12 00:53:47;;;;;;;0.57;0.57;;;;;;;7.15;79.40;98622.97;5056088;28;20076;-70
2023/11/12 00:56:18;;;;;;;0.57;0.57;;;;;;;7.10;79.91;98612.81;5055719;28;20052;-73
2023/11/12 00:58:47;;;;;;;0.73;0.73;;;;;;;7.14;79.31;98626.34;5055988;28;20406;-72
2023/11/12 01:01:16;;;;;;;1.08;1.08;;;;;;;7.09;79.67;98625.53;5054657;28;20064;-73
2023/11/12 01:03:45;;;;;;;0.38;0.38;;;;;;;7.09;79.89;98628.06;5054706;28;20037;-72
2023/11/12 01:06:14;;;;;;;0.40;0.40;;;;;;;7.02;79.38;98606.09;5055548;28;20045;-72
2023/11/12 01:08:43;;;;;;;0.40;0.40;;;;;;;7.05;79.16;98624.72;5055402;28;20128;-73
2023/11/12 01:11:11;;;;;;;3.83;0.88;;;;;;;7.03;79.31;98628.09;5055455;28;20045;-73
2023/11/12 01:13:42;;;;;;;0.68;0.68;;;;;;;7.01;79.76;98630.63;5054176;28;20559;-72
2023/11/12 01:16:11;;;;;;;0.50;0.50;;;;;;;7.02;80.00;98628.94;5055897;28;20053;-73
2023/11/12 01:18:41;;;;;;;0.52;0.52;;;;;;;7.02;79.35;98627.25;5054402;28;20509;-71
2023/11/12 01:21:11;;;;;;;0.35;0.35;;;;;;;7.01;79.39;98624.69;5055560;28;20096;-71
2023/11/12 01:23:40;;;;;;;0.30;0.30;;;;;;;7.04;79.48;98624.69;5054569;28;20049;-72
2023/11/12 01:26:09;;;;;;;0.38;0.38;;;;;;;7.03;79.33;98633.16;5053995;28;20045;-73
2023/11/12 01:28:37;;;;;;;0.35;0.35;;;;;;;7.05;79.34;98636.53;5054970;28;20052;-72
2023/11/12 01:31:07;;;;;;;0.68;0.68;;;;;;;7.06;78.69;98628.06;5055047;28;20083;-73
2023/11/12 01:33:36;;;;;;;1.52;1.08;;;;;;;7.09;78.91;98633.97;5055064;28;20056;-70
2023/11/12 01:36:06;;;;;;;0.63;0.63;;;;;;;7.06;78.85;98633.97;5054069;28;20072;-71
2023/11/12 01:38:35;;;;;;;0.40;0.40;;;;;;;7.05;79.19;98634.00;5055482;28;20053;-73
2023/11/12 01:41:04;;;;;;;0.32;0.32;;;;;;;6.96;79.20;98627.25;5054872;28;20041;-71
2023/11/12 01:43:34;;;;;;;0.75;0.75;;;;;;;7.05;79.54;98636.53;5054891;28;20045;-71
2023/11/12 01:46:07;;;;;;;0.30;0.30;;;;;;;7.03;79.26;98635.72;5054790;28;20103;-73
2023/11/12 01:48:39;;;;;;;0.50;0.50;;;;;;;6.98;79.09;98634.88;5054626;28;20290;-71
2023/11/12 01:51:09;;;;;;;0.40;0.40;;;;;;;6.98;79.17;98639.94;5054418;28;20145;-71
2023/11/12 01:53:40;;;;;;;0.30;0.30;;;;;;;6.96;78.37;98631.50;5053496;28;20052;-72
2023/11/12 01:56:12;;;;;;;0.30;0.30;;;;;;;6.99;79.00;98639.06;5054955;28;20041;-70
2023/11/12 01:58:43;;;;;;;0.95;0.95;;;;;;;6.98;78.99;98634.88;5053420;28;20060;-71
2023/11/12 02:01:13;;;;;;;0.77;0.77;;;;;;;6.98;79.15;98630.63;5054469;28;20053;-73
2023/11/12 02:03:44;;;;;;;0.40;0.40;;;;;;;6.94;78.71;98633.19;5053102;28;20091;-72
2023/11/12 02:06:15;;;;;;;0.30;0.30;;;;;;;6.92;78.46;98637.41;5036978;28;20490;-72
2023/11/12 02:08:45;;;;;;;0.57;0.57;;;;;;;6.93;78.57;98641.66;5053131;28;20051;-73
2023/11/12 02:11:15;;;;;;;0.43;0.43;;;;;;;6.90;78.47;98634.03;5054546;28;20063;-71
2023/11/12 02:13:45;;;;;;;0.88;0.88;;;;;;;6.84;79.51;98634.06;5054224;28;20049;-73
2023/11/12 02:16:15;;;;;;;0.40;0.40;;;;;;;6.79;78.98;98638.31;5054229;28;20120;-71
2023/11/12 02:18:47;;;;;;;0.30;0.30;;;;;;;6.73;79.07;98634.94;5053037;28;20056;-71
2023/11/12 02:21:23;;;;;;;0.73;0.73;;;;;;;6.73;79.47;98642.56;5053168;28;20049;-74
2023/11/12 02:23:53;;;;;;;0.40;0.40;;;;;;;6.75;79.85;98635.78;5052754;28;20049;-71
2023/11/12 02:26:22;;;;;;;0.55;0.55;;;;;;;6.72;79.07;98638.31;5053061;28;20128;-72
2023/11/12 02:28:51;;;;;;;0.30;0.30;;;;;;;6.52;79.29;98612.19;5052406;28;20040;-71
2023/11/12 02:31:20;;;;;;;0.35;0.35;;;;;;;6.33;78.86;98586.88;5052655;28;20052;-73
2023/11/12 02:33:49;;;;;;;0.60;0.60;;;;;;;6.67;79.14;98650.16;5052568;28;20410;-72
2023/11/12 02:36:19;;;;;;;0.43;0.43;;;;;;;6.66;79.36;98652.69;5053762;28;20103;-73
2023/11/12 02:38:51;;;;;;;1.08;1.02;;;;;;;6.63;79.23;98653.53;5052444;28;20045;-71
2023/11/12 02:41:23;;;;;;;0.50;0.50;;;;;;;6.62;79.41;98659.44;5052620;28;20491;-71
2023/11/12 02:43:52;;;;;;;0.32;0.32;;;;;;;6.68;79.09;98651.84;5053586;28;20163;-72
2023/11/12 02:46:20;;;;;;;0.43;0.43;;;;;;;6.67;79.36;98655.22;5052371;28;20036;-72
2023/11/12 02:49:05;;;;;;;0.50;0.50;;;;;;;6.63;79.66;98648.47;5052891;28;20091;-72
2023/11/12 02:51:34;;;;;;;0.52;0.52;;;;;;;6.70;79.70;98660.28;5052292;28;20136;-71
2023/11/12 02:54:03;;;;;;;2.17;1.03;;;;;;;6.72;79.32;98661.13;5053529;28;20069;-73
2023/11/12 02:56:34;;;;;;;0.30;0.30;;;;;;;6.74;79.24;98656.91;5053819;28;20045;-71
2023/11/12 02:59:05;;;;;;;0.55;0.50;;;;;;;6.75;79.01;98658.59;5053433;28;20048;-72
2023/11/12 03:01:34;;;;;;;1.13;0.75;;;;;;;6.78;78.86;98662.81;5053469;28;20049;-71
2023/11/12 03:04:02;;;;;;;2.10;2.00;;;;;;;6.79;79.32;98663.66;5052060;28;20037;-72
2023/11/12 03:06:33;;;;;;;0.60;0.60;;;;;;;6.80;78.44;98657.72;5053490;28;20123;-70
2023/11/12 03:09:03;;;;;;;3.13;1.50;;;;;;;6.76;78.90;98659.44;5053235;28;20170;-74
2023/11/12 03:11:34;;;;;;;0.65;0.65;;;;;;;6.62;78.87;98635.81;5053308;28;20053;-73
2023/11/12 03:14:03;;;;;;;0.45;0.45;;;;;;;6.68;78.56;98651.00;5051758;28;20053;-73
2023/11/12 03:16:32;;;;;;;0.52;0.52;;;;;;;6.59;79.29;98639.19;5053498;28;20459;-71
2023/11/12 03:19:01;;;;;;;0.40;0.40;;;;;;;6.70;79.25;98660.28;5053502;28;20045;-73
2023/11/12 03:21:29;;;;;;;0.50;0.50;;;;;;;6.73;78.49;98670.44;5053163;28;20045;-72
2023/11/12 03:23:58;;;;;;;7.38;1.40;;;;;;;6.71;78.75;98676.34;5053069;28;20048;-71
2023/11/12 03:26:28;;;;;;;0.40;0.40;;;;;;;6.67;79.05;98672.97;5053152;28;20042;-73
2023/11/12 03:28:59;;;;;;;0.30;0.30;;;;;;;6.67;79.16;98675.50;5051829;28;20051;-72
2023/11/12 03:31:28;;;;;;;0.30;0.30;;;;;;;6.66;79.31;98673.84;5053069;28;20090;-72
2023/11/12 03:33:57;;;;;;;0.40;0.40;;;;;;;6.72;78.40;98681.41;5053129;28;20103;-72
2023/11/12 03:36:26;;;;;;;1.33;1.27;;;;;;;6.73;78.74;98685.66;5052958;28;20053;-73
2023/11/12 03:38:55;;;;;;;0.28;0.28;;;;;;;6.73;78.75;98678.03;5051806;28;20069;-72
2023/11/12 03:41:24;;;;;;;0.45;0.45;;;;;;;6.73;78.90;98690.72;5053379;28;20424;-71
2023/11/12 03:43:52;;;;;;;0.40;0.40;;;;;;;6.72;78.55;98693.25;5053013;28;20037;-72
2023/11/12 03:46:23;;;;;;;0.30;0.30;;;;;;;6.68;79.15;98697.47;5052867;28;20045;-73
2023/11/12 03:48:52;;;;;;;0.60;0.60;;;;;;;6.65;78.53;98692.41;5053155;28;20045;-72
2023/11/12 03:51:21;;;;;;;0.85;0.85;;;;;;;6.68;78.35;98707.63;5051502;28;20053;-72
2023/11/12 03:53:50;;;;;;;0.40;0.40;;;;;;;6.64;78.69;98690.75;5051677;28;20056;-72
2023/11/12 03:56:19;;;;;;;0.38;0.38;;;;;;;6.63;78.58;98699.19;5052866;28;20578;-72
2023/11/12 03:58:47;;;;;;;1.27;1.03;;;;;;;6.30;78.85;98648.53;5052006;28;20041;-72
2023/11/12 04:01:16;;;;;;;0.70;0.70;;;;;;;6.66;78.32;98703.41;5051715;28;20091;-72
2023/11/12 04:03:47;;;;;;;2.20;1.50;;;;;;;6.62;78.60;98697.47;5053098;28;20048;-73
2023/11/12 04:06:15;;;;;;;2.45;1.10;;;;;;;6.68;79.09;98707.63;5053012;28;20057;-72
2023/11/12 04:08:44;;;;;;;0.63;0.63;;;;;;;6.69;78.73;98713.53;5052646;28;20045;-74
2023/11/12 04:11:13;;;;;;;0.40;0.40;;;;;;;6.67;78.24;98711.00;5053125;28;20121;-73
2023/11/12 04:13:42;;;;;;;1.35;1.27;;;;;;;6.64;78.64;98722.84;5051529;28;20053;-74
2023/11/12 04:16:10;;;;;;;0.40;0.40;;;;;;;6.62;78.55;98727.06;5051543;28;20041;-75
2023/11/12 04:18:39;;;;;;;1.73;1.60;;;;;;;6.54;78.96;98724.53;5052543;28;20045;-74
2023/11/12 04:21:10;;;;;;;0.82;0.82;;;;;;;6.54;79.21;98732.16;5052988;28;20041;-72
2023/11/12 04:23:44;;;;;;;0.82;0.82;;;;;;;6.48;79.37;98729.59;5052651;28;20045;-73
2023/11/12 04:26:13;;;;;;;0.50;0.50;;;;;;;6.48;79.12;98731.28;5051768;28;20423;-70
2023/11/12 04:28:42;;;;;;;2.30;1.50;;;;;;;6.30;78.78;98704.25;5056089;28;20124;-72
2023/11/12 04:31:13;;;;;;;0.82;0.80;;;;;;;6.48;79.49;98744.78;5055251;28;20048;-72
2023/11/12 04:33:45;;;;;;;0.60;0.60;;;;;;;6.44;79.70;98740.59;5056083;28;20049;-74
2023/11/12 04:36:18;;;;;;;0.40;0.40;;;;;;;6.43;79.32;98740.59;5056056;28;20041;-74
2023/11/12 04:38:49;;;;;;;0.60;0.60;;;;;;;6.43;79.41;98750.72;5055043;28;20110;-73
2023/11/12 04:41:18;;;;;;;0.70;0.70;;;;;;;6.38;79.65;98757.47;5056184;28;20041;-73
2023/11/12 04:43:47;;;;;;;0.40;0.40;;;;;;;6.36;80.20;98754.94;5055876;28;20132;-73
2023/11/12 04:46:18;;;;;;;0.45;0.45;;;;;;;6.31;80.16;98761.66;5055714;28;20069;-72
2023/11/12 04:48:46;;;;;;;0.60;0.60;;;;;;;6.24;80.53;98765.03;5055807;28;20069;-72
2023/11/12 04:51:17;;;;;;;0.40;0.40;;;;;;;6.20;80.78;98768.41;5055477;28;20084;-73
2023/11/12 04:53:46;;;;;;;0.63;0.63;;;;;;;6.19;80.81;98771.78;5055793;28;20128;-71
2023/11/12 04:56:15;;;;;;;0.82;0.82;;;;;;;6.17;80.70;98773.47;5055707;28;20072;-71
2023/11/12 04:58:44;;;;;;;0.60;0.60;;;;;;;6.11;81.12;98772.63;5054456;28;20048;-73
2023/11/12 05:01:13;;;;;;;0.60;0.60;;;;;;;6.17;81.03;98773.47;5055854;28;20037;-72
2023/11/12 05:03:42;;;;;;;0.38;0.38;;;;;;;6.15;80.51;98780.22;5055632;28;20278;-72
2023/11/12 05:06:11;;;;;;;1.50;0.90;;;;;;;6.09;81.18;98785.28;5055907;28;20041;-72
2023/11/12 05:08:42;;;;;;;0.47;0.47;;;;;;;6.06;81.10;98790.34;5055372;28;20267;-71
2023/11/12 05:11:10;;;;;;;0.93;0.88;;;;;;;6.06;81.26;98790.34;5055320;28;20041;-72
2023/11/12 05:13:40;;;;;;;0.37;0.37;;;;;;;6.06;81.26;98788.66;5055307;28;20045;-72
2023/11/12 05:16:09;;;;;;;0.40;0.40;;;;;;;6.04;80.83;98797.09;5055351;28;20049;-71
2023/11/12 05:18:37;;;;;;;0.60;0.60;;;;;;;6.03;80.91;98800.47;5055153;28;20132;-73
2023/11/12 05:21:06;;;;;;;0.40;0.40;;;;;;;6.00;80.90;98790.31;5055138;28;20122;-72
2023/11/12 05:23:36;;;;;;;0.90;0.90;;;;;;;6.04;81.22;98797.09;5055076;28;20399;-71
2023/11/12 05:26:06;;;;;;;0.40;0.40;;;;;;;6.03;80.79;98795.41;5055130;28;20166;-71
2023/11/12 05:28:35;;;;;;;0.30;0.30;;;;;;;6.02;81.04;98808.91;5054971;28;20056;-71
2023/11/12 05:31:04;;;;;;;0.77;0.77;;;;;;;6.01;80.72;98807.22;5055135;28;20446;-71
2023/11/12 05:33:33;;;;;;;0.30;0.30;;;;;;;5.98;80.92;98817.31;5055487;28;20037;-72
2023/11/12 05:36:01;;;;;;;2.63;1.87;;;;;;;5.66;81.04;98763.19;5053950;28;20044;-73
2023/11/12 05:38:30;;;;;;;0.50;0.50;;;;;;;5.89;81.18;98792.81;5054673;28;20095;-72
2023/11/12 05:40:59;;;;;;;0.38;0.38;;;;;;;5.97;81.00;98820.72;5054770;28;20041;-72
2023/11/12 05:43:29;;;;;;;0.50;0.50;;;;;;;5.94;80.91;98821.53;5055167;28;20041;-73
2023/11/12 05:45:58;;;;;;;0.90;0.85;;;;;;;5.81;80.83;98802.03;5054800;28;20771;-72
2023/11/12 05:48:26;;;;;;;0.50;0.50;;;;;;;5.90;80.92;98829.94;5054544;28;20131;-71
2023/11/12 05:50:57;;;;;;;0.50;0.50;;;;;;;5.85;81.26;98820.66;5054438;28;20120;-72
2023/11/12 05:53:26;;;;;;;0.40;0.40;;;;;;;5.80;80.90;98829.88;5054851;28;20051;-70
2023/11/12 05:55:55;;;;;;;1.35;0.98;;;;;;;5.80;81.11;98833.28;5054845;28;20037;-72
2023/11/12 05:58:23;;;;;;;0.50;0.50;;;;;;;5.69;81.17;98834.88;5055059;28;20048;-71
2023/11/12 06:00:55;;;;;;;0.30;0.30;;;;;;;5.75;81.08;98845.06;5054379;28;20037;-72
2023/11/12 06:03:24;;;;;;;0.45;0.45;;;;;;;5.78;81.04;98849.28;5054647;28;20067;-73
2023/11/12 06:05:53;;;;;;;0.77;0.67;;;;;;;5.75;81.31;98850.13;5054254;28;20037;-70
2023/11/12 06:08:22;;;;;;;1.23;1.13;;;;;;;5.78;81.36;98845.06;5054443;28;20128;-72
2023/11/12 06:10:51;;;;;;;0.38;0.38;;;;;;;5.81;81.48;98850.13;5054663;28;20387;-71
2023/11/12 06:13:19;;;;;;;0.65;0.65;;;;;;;5.89;81.50;98847.69;5054133;28;20048;-73
2023/11/12 06:15:48;;;;;;;0.40;0.40;;;;;;;5.86;81.03;98848.50;5054087;28;20120;-73
2023/11/12 06:18:18;;;;;;;1.20;1.13;;;;;;;5.92;81.29;98861.22;5054159;28;20037;-72
2023/11/12 06:20:47;;;;;;;0.40;0.40;;;;;;;5.94;81.39;98861.22;5054000;28;20293;-71
2023/11/12 06:23:17;;;;;;;0.80;0.80;;;;;;;5.89;81.04;98863.72;5054021;28;20049;-71
2023/11/12 06:25:45;;;;;;;0.60;0.60;;;;;;;5.92;80.88;98873.03;5053921;28;20120;-72
2023/11/12 06:28:16;;;;;;;0.70;0.70;;;;;;;5.96;81.15;98874.72;5053857;28;20051;-73
2023/11/12 06:30:45;;;;;;;2.38;1.50;;;;;;;6.00;80.79;98881.47;5054512;28;20044;-72
2023/11/12 06:33:13;;;;;;;0.60;0.60;;;;;;;6.02;80.70;98884.88;5053731;28;20139;-73
2023/11/12 06:35:44;;;;;;;3.83;1.23;;;;;;;6.03;80.44;98877.28;5053752;28;20076;-73
2023/11/12 06:38:13;;;;;;;0.32;0.32;;;;;;;6.02;80.69;98879.81;5053752;28;20059;-72
2023/11/12 06:40:42;;;;;;;0.85;0.85;;;;;;;5.95;80.50;98871.34;5053958;28;20037;-73
2023/11/12 06:43:10;;;;;;;0.65;0.65;;;;;;;6.07;80.56;98889.13;5053612;28;20053;-72
2023/11/12 06:45:39;;;;;;;0.40;0.40;;;;;;;6.11;80.98;98887.47;5053533;28;20127;-73
2023/11/12 06:48:08;;;;;;;0.20;0.20;;;;;;;6.13;80.18;98898.44;5053544;28;20056;-72
2023/11/12 06:50:37;;;;;;;0.63;0.63;;;;;;;6.17;80.42;98900.13;5052944;28;20281;-72
2023/11/12 06:53:07;;;;;;;0.80;0.80;;;;;;;6.23;80.03;98894.25;5053386;28;20049;-72
2023/11/12 06:55:35;;;;;;;1.25;1.15;;;;;;;6.26;79.68;98896.81;5053432;28;20049;-73
2023/11/12 06:58:04;;;;;;;0.60;0.60;;;;;;;6.35;79.64;98900.22;5053464;28;20041;-72
2023/11/12 07:00:34;;;;;;;0.80;0.80;;;;;;;6.41;79.26;98900.22;5053646;28;20460;-73
2023/11/12 07:03:03;;;;;;;;;;;;;;;6.48;78.53;98899.41;5053521;28;20045;-74
2023/11/12 07:05:32;;;;;;;0.75;0.75;;;;;;;6.52;78.34;98903.66;5053288;28;19921;-72
2023/11/12 07:08:00;;;;;;;0.73;0.73;;;;;;;6.60;78.58;98907.03;5053243;28;20041;-73
2023/11/12 07:10:31;;;;;;;0.70;0.70;;;;;;;6.62;78.43;98900.28;5053669;28;20317;-73
2023/11/12 07:13:00;;;;;;;0.30;0.30;;;;;;;6.69;78.70;98909.59;5053222;28;20049;-73
2023/11/12 07:15:29;;;;;;;0.50;0.50;;;;;;;6.77;78.31;98918.94;5053203;28;20048;-73
2023/11/12 07:17:57;;;;;;;0.70;0.70;;;;;;;6.80;78.21;98916.38;5053644;28;20044;-73
2023/11/12 07:20:32;;;;;;;0.57;0.57;;;;;;;6.86;77.98;98919.78;5053688;28;20087;-70
2023/11/12 07:23:01;;;;;;;2.83;1.20;;;;;;;6.94;77.24;98917.22;5052101;28;20098;-73
2023/11/12 07:25:31;;;;;;;0.60;0.50;;;;;;;6.93;76.89;98911.34;5053196;28;20052;-72
2023/11/12 07:28:00;;;;;;;0.30;0.30;;;;;;;6.92;77.29;98919.78;5053601;28;20049;-71
2023/11/12 07:30:30;;;;;;;0.40;0.40;;;;;;;6.91;76.66;98927.41;5053237;28;20052;-73
2023/11/12 07:32:58;;;;;;;0.40;0.40;;;;;;;6.88;77.24;98923.16;5053393;28;20095;-73
2023/11/12 07:35:27;;;;;;;0.55;0.55;;;;;;;6.87;76.97;98930.75;5053535;28;20502;-72
2023/11/12 07:37:56;;;;;;;0.40;0.40;;;;;;;6.88;77.46;98933.31;5042407;28;20042;-72
2023/11/12 07:40:26;;;;;;;0.65;0.65;;;;;;;6.91;76.93;98932.47;5033415;28;20047;-72
2023/11/12 07:42:56;;;;;;;0.57;0.57;;;;;;;6.91;76.54;98930.75;5033734;28;20092;-72
2023/11/12 07:45:25;;;;;;;0.70;0.70;;;;;;;6.95;76.91;98924.88;5042644;28;20140;-71
2023/11/12 07:48:08;;;;;;;1.55;1.15;;;;;;;6.93;76.32;98929.09;5037695;28;20484;-72
2023/11/12 07:50:37;;;;;;;0.40;0.40;;;;;;;6.87;76.32;98931.59;5042681;28;20054;-72
2023/11/12 07:53:06;;;;;;;0.30;0.30;;;;;;;6.93;76.49;98941.78;5040330;28;20132;-71
2023/11/12 07:55:34;;;;;;;1.15;1.05;;;;;;;7.01;76.20;98944.31;5043593;28;20130;-72
2023/11/12 07:58:05;;;;;;;0.60;0.60;;;;;;;7.10;76.32;98935.00;5044240;28;20044;-71
2023/11/12 08:00:34;;;;;;;0.50;0.50;;;;;;;7.23;77.31;98936.72;5054460;28;20053;-71
2023/11/12 08:03:03;;;;;;;0.47;0.47;;;;;;;7.30;76.56;98937.56;5056787;28;20483;-71
2023/11/12 08:05:33;;;;;;;0.65;0.65;;;;;;;7.40;76.14;98934.19;5057015;28;20049;-73
2023/11/12 08:08:01;;;;;;;0.35;0.35;;;;;;;7.62;76.06;98932.47;5057053;28;20126;-71
2023/11/12 08:10:30;;;;;;;0.82;0.82;;;;;;;7.83;75.72;98930.75;5056778;28;20449;-72
2023/11/12 08:12:59;;;;;;;0.60;0.60;;;;;;;8.10;75.13;98935.78;5056495;28;20041;-71
2023/11/12 08:15:29;;;;;;;0.60;0.53;;;;;;;8.20;74.67;98930.66;5056557;28;20140;-71
2023/11/12 08:17:57;;;;;;;1.17;0.65;;;;;;;8.34;74.81;98931.47;5056740;28;20282;-72
2023/11/12 08:20:26;;;;;;;0.57;0.57;;;;;;;8.34;74.10;98926.41;5056790;28;20041;-71
2023/11/12 08:22:55;;;;;;;0.98;0.95;;;;;;;8.37;72.65;98928.94;5056644;28;20045;-70
2023/11/12 08:25:24;;;;;;;1.60;0.80;;;;;;;8.35;72.18;98934.00;5056311;28;20037;-71
2023/11/12 08:27:53;;;;;;;0.40;0.40;;;;;;;8.36;72.55;98927.22;5056585;28;20049;-69
2023/11/12 08:30:23;;;;;;;0.88;0.85;;;;;;;8.40;72.25;98933.97;5053152;28;20053;-71
2023/11/12 08:32:53;;;;;;;;;;;;;;;8.51;72.19;98932.25;5035842;28;20112;-72
2023/11/12 08:35:21;;;;;;;0.60;0.60;;;;;;;8.56;72.22;98926.31;5035324;28;20290;-70
2023/11/12 08:37:50;;;;;;;0.30;0.30;;;;;;;8.62;71.80;98930.50;5036288;28;20100;-71
2023/11/12 08:40:19;;;;;;;1.20;0.97;;;;;;;8.80;71.98;98939.75;5035932;28;20099;-72
2023/11/12 08:42:48;;;;;;;0.83;0.77;;;;;;;8.90;72.09;98942.19;5036519;28;20553;-71
2023/11/12 08:45:17;;;;;;;0.93;0.93;;;;;;;9.06;71.51;98938.72;5036329;28;20037;-72
2023/11/12 08:47:45;;;;;;;0.95;0.80;;;;;;;9.10;71.24;98942.94;5035152;28;20045;-72
2023/11/12 08:50:15;;;;;;;0.60;0.60;;;;;;;9.11;71.19;98948.88;5035808;28;20126;-71
2023/11/12 08:52:44;;;;;;;0.65;0.65;;;;;;;9.24;70.77;98941.13;5035583;28;20100;-72
2023/11/12 08:55:13;;;;;;;0.50;0.50;;;;;;;9.39;70.80;98940.16;5036229;28;20089;-71
2023/11/12 08:57:42;;;;;;;1.60;1.50;;;;;;;9.55;69.94;98939.19;5036045;28;20038;-72
2023/11/12 09:00:11;;;;;;;0.40;0.40;;;;;;;9.68;70.15;98940.78;5035788;28;20041;-71
2023/11/12 09:02:40;;;;;;;;;;;;;;;9.65;69.25;98950.97;5043173;28;20040;-71
2023/11/12 09:05:09;;;;;;;1.07;0.97;;;;;;;9.74;68.74;98950.06;5045611;28;19928;-72
2023/11/12 09:07:40;;;;;;;0.63;0.63;;;;;;;9.83;68.77;98945.72;5043990;28;20116;-72
2023/11/12 09:10:09;;;;;;;1.17;0.93;;;;;;;9.97;67.98;98950.69;5044737;28;20166;-72
2023/11/12 09:12:38;;;;;;;0.57;0.57;;;;;;;10.00;67.05;98948.13;5045035;28;20074;-72
2023/11/12 09:15:09;;;;;;;0.57;0.57;;;;;;;10.04;66.63;98949.75;5043131;28;20037;-70
2023/11/12 09:17:38;;;;;;;1.60;1.27;;;;;;;10.14;66.48;98943.75;5034333;28;20376;-71
2023/11/12 09:20:13;;;;;;;1.60;0.90;;;;;;;10.13;66.18;98948.84;5035683;28;20123;-69
2023/11/12 09:22:44;;;;;;;0.50;0.50;;;;;;;10.07;66.10;98944.63;5035387;28;20130;-71
2023/11/12 09:25:13;;;;;;;0.73;0.73;;;;;;;10.12;65.95;98940.38;5035672;28;20470;-71
2023/11/12 09:27:42;;;;;;;0.30;0.30;;;;;;;9.96;65.59;98936.25;5035678;28;20045;-70
2023/11/12 09:30:11;;;;;;;0.40;0.40;;;;;;;9.97;65.82;98937.94;5035576;28;20042;-72
2023/11/12 09:32:41;;;;;;;0.30;0.30;;;;;;;10.05;64.88;98933.63;5035159;28;20044;-73
2023/11/12 09:35:11;;;;;;;0.40;0.40;;;;;;;10.05;64.28;98920.88;5036241;28;20286;-71
2023/11/12 09:37:39;;;;;;;0.32;0.32;;;;;;;10.15;64.31;98927.56;5035365;28;20033;-72
2023/11/12 09:40:12;;;;;;;0.60;0.60;;;;;;;10.30;63.89;98927.41;5035400;28;20045;-71
2023/11/12 09:42:48;;;;;;;0.50;0.50;;;;;;;10.44;63.54;98932.31;5035069;28;20377;-71
2023/11/12 09:45:19;;;;;;;0.40;0.40;;;;;;;10.56;64.44;98925.38;5035218;28;20056;-72
2023/11/12 09:48:08;;;;;;;0.32;0.32;;;;;;;10.71;64.57;98924.31;5034922;28;20111;-72
2023/11/12 09:50:38;;;;;;;0.77;0.77;;;;;;;10.71;64.85;98909.00;5034726;28;20048;-72
2023/11/12 09:53:07;;;;;;;1.42;1.33;;;;;;;10.72;64.77;98921.72;5034646;28;20091;-72
2023/11/12 09:55:38;;;;;;;0.50;0.50;;;;;;;10.61;64.31;98912.53;5035022;28;20088;-70
2023/11/12 09:58:06;;;;;;;0.77;0.77;;;;;;;10.71;64.65;98914.97;5034707;28;20054;-72
2023/11/12 10:00:36;;;;;;;1.90;1.05;;;;;;;10.70;63.89;98913.25;5035202;28;20037;-71
2023/11/12 10:03:07;;;;;;;0.45;0.45;;;;;;;10.81;63.58;98914.84;5034547;28;20038;-72
2023/11/12 10:05:36;;;;;;;0.70;0.70;;;;;;;10.80;63.29;98908.88;5034551;28;20132;-72
2023/11/12 10:08:05;;;;;;;1.05;1.05;;;;;;;10.76;62.88;98908.09;5034480;28;20056;-72
2023/11/12 10:10:35;;;;;;;0.60;0.60;;;;;;;10.96;63.14;98915.47;5033509;28;20045;-72
2023/11/12 10:13:05;;;;;;;0.70;0.70;;;;;;;11.13;63.13;98902.44;5034589;28;20045;-72
2023/11/12 10:15:34;;;;;;;0.50;0.50;;;;;;;11.32;63.24;98898.75;5034764;28;20080;-71
2023/11/12 10:18:03;;;;;;;0.50;0.50;;;;;;;11.48;63.29;98884.81;5034313;28;20057;-72
2023/11/12 10:20:38;;;;;;;0.47;0.47;;;;;;;11.73;62.96;98896.34;5041229;28;20057;-72
2023/11/12 10:23:20;;;;;;;1.35;0.88;;;;;;;11.59;61.62;98888.03;5054084;28;20080;-72
2023/11/12 10:26:03;;;;;;;0.40;0.40;;;;;;;11.71;61.48;98892.97;5052372;28;20049;-71
2023/11/12 10:28:35;;;;;;;0.40;0.40;;;;;;;11.57;60.52;98899.16;5053992;28;20041;-71
2023/11/12 10:31:07;;;;;;;0.65;0.65;;;;;;;11.42;60.62;98897.72;5053978;28;20076;-72
2023/11/12 10:33:36;;;;;;;0.65;0.65;;;;;;;11.35;60.86;98893.56;5054359;28;20044;-73
2023/11/12 10:36:10;;;;;;;0.80;0.80;;;;;;;11.37;61.15;98902.06;5054129;28;20059;-72
2023/11/12 10:38:49;;;;;;;0.50;0.50;;;;;;;11.43;60.80;98896.84;5054195;28;20124;-72
2023/11/12 10:41:19;;;;;;;;;;;;;;;11.58;60.67;98906.81;5054379;28;20499;-72
2023/11/12 10:43:58;;;;;;;0.60;0.60;;;;;;;11.60;60.45;98905.06;5053806;28;20375;-72
2023/11/12 10:46:29;;;;;;;0.75;0.75;;;;;;;11.50;59.91;98898.41;5052809;28;20063;-71
2023/11/12 10:48:59;;;;;;;0.70;0.70;;;;;;;11.62;59.95;98908.44;5053735;28;20116;-72
2023/11/12 10:51:29;;;;;;;0.50;0.50;;;;;;;11.69;59.26;98910.03;5053452;28;20045;-72
2023/11/12 10:54:00;;;;;;;0.47;0.47;;;;;;;11.53;59.09;98898.38;5053729;28;20056;-72
2023/11/12 10:56:31;;;;;;;0.85;0.80;;;;;;;11.73;59.41;98914.25;5053637;28;20545;-72
2023/11/12 10:59:02;;;;;;;4.70;0.80;;;;;;;11.54;58.92;98910.25;5053931;28;20053;-72
2023/11/12 11:01:34;;;;;;;0.55;0.55;;;;;;;11.52;58.83;98917.13;5053627;28;20051;-72
2023/11/12 11:04:06;;;;;;;0.50;0.50;;;;;;;11.44;59.32;98908.75;5053754;28;20056;-72
2023/11/12 11:06:37;;;;;;;0.50;0.50;;;;;;;11.58;59.11;98911.91;5052523;28;20051;-72
2023/11/12 11:09:06;;;;;;;0.57;0.57;;;;;;;11.63;58.89;98911.84;5053580;28;20106;-72
2023/11/12 11:11:35;;;;;;;0.60;0.60;;;;;;;11.33;58.76;98913.16;5053603;28;20041;-73
2023/11/12 11:14:24;;;;;;;0.80;0.80;;;;;;;10.96;59.29;98924.84;5053369;28;20274;-71
2023/11/12 11:16:53;;;;;;;0.50;0.50;;;;;;;11.11;59.62;98922.06;5053798;28;20115;-71
2023/11/12 11:19:48;;;;;;;1.35;0.85;;;;;;;11.45;59.20;98923.19;5053255;28;20041;-72
2023/11/12 11:22:27;;;;;;;0.47;0.47;;;;;;;11.60;59.67;98925.50;5045992;28;20049;-71
2023/11/12 11:24:57;;;;;;;1.08;0.98;;;;;;;11.63;58.94;98912.69;5053681;28;20068;-72
2023/11/12 11:27:28;;;;;;;0.50;0.50;;;;;;;11.55;59.13;98911.97;5053368;28;20069;-72
2023/11/12 11:30:10;;;;;;;2.55;1.38;;;;;;;11.48;59.45;98912.94;5053356;28;20402;-70
2023/11/12 11:32:57;;;;;;;0.93;0.50;;;;;;;11.42;59.27;98908.75;5053240;28;20049;-70
2023/11/12 11:35:27;;;;;;;0.40;0.40;;;;;;;11.36;60.25;98916.53;5054068;28;20398;-71
2023/11/12 11:38:09;;;;;;;0.85;0.75;;;;;;;11.62;60.41;98908.44;5057139;28;20053;-71
2023/11/12 11:40:41;;;;;;;0.45;0.45;;;;;;;11.82;60.24;98926.84;5057206;28;20049;-72
2023/11/12 11:43:31;;;;;;;0.30;0.30;;;;;;;11.74;60.42;98921.03;5057223;28;20048;-72
2023/11/12 11:46:13;;;;;;;1.75;1.10;;;;;;;11.43;62.08;98917.28;5057124;28;20039;-70
2023/11/12 11:49:14;;;;;;;0.80;0.80;;;;;;;11.35;62.41;98925.06;5056684;28;20107;-70
2023/11/12 11:51:46;;;;;;;0.60;0.60;;;;;;;11.27;62.90;98926.06;5029514;28;20057;-71
2023/11/12 11:54:16;;;;;;;0.65;0.60;;;;;;;11.19;63.25;98917.66;5056915;28;20044;-72
2023/11/12 11:56:45;;;;;;;0.40;0.40;;;;;;;10.91;63.67;98911.28;5056963;28;20055;-70